Time;durP1;ratioP1;P1;durP2;ratioP2;P2;SDS_P1;SDS_P2;PMS_P1;PMS_P2;Temp;Humidity;BMP_temperature;BMP_pressure;BME280_temperature;BME280_humidity;BME280_pressure;Samples;Min_cycle;Max_cycle;Signal;HPM_P1;HPM_P2
2023/11/03 00:01:24;;;;;;;12.45;8.50;;;;;;;;;;5025914;28;20101;-58
2023/11/03 00:03:49;;;;;;;13.38;8.88;;;;;;;;;;5027746;28;20151;-57
2023/11/03 00:06:15;;;;;;;12.40;9.00;;;;;;;;;;5027893;28;20045;-59
2023/11/03 00:08:41;;;;;;;15.43;9.40;;;;;;;;;;5028364;28;20310;-57
2023/11/03 00:11:07;;;;;;;12.77;8.93;;;;;;;;;;5026506;28;20766;-57
2023/11/03 00:13:36;;;;;;;11.82;8.32;;;;;;;;;;5027809;28;20041;-58
2023/11/03 00:16:02;;;;;;;11.90;9.23;;;;;;;;;;5028522;28;20030;-59
2023/11/03 00:18:27;;;;;;;10.88;8.13;;;;;;;;;;5027300;28;20060;-57
2023/11/03 00:20:52;;;;;;;12.63;9.32;;;;;;;;;;5028766;28;20126;-57
2023/11/03 00:23:18;;;;;;;13.07;8.82;;;;;;;;;;5026825;28;20041;-58
2023/11/03 00:25:46;;;;;;;13.43;8.40;;;;;;;;;;5025891;28;20041;-60
2023/11/03 00:28:11;;;;;;;13.27;9.15;;;;;;;;;;5028594;28;20033;-57
2023/11/03 00:30:38;;;;;;;11.60;8.68;;;;;;;;;;5028847;28;20033;-59
2023/11/03 00:33:03;;;;;;;13.23;8.93;;;;;;;;;;5033083;28;21109;-57
2023/11/03 00:35:28;;;;;;;13.02;8.95;;;;;;;;;;5023125;28;20029;-57
2023/11/03 00:37:56;;;;;;;12.50;8.45;;;;;;;;;;5040622;28;20041;-57
2023/11/03 00:40:21;;;;;;;12.50;8.60;;;;;;;;;;5037031;28;20026;-58
2023/11/03 00:42:46;;;;;;;12.32;9.18;;;;;;;;;;5044553;28;20572;-58
2023/11/03 00:45:11;;;;;;;13.15;9.20;;;;;;;;;;5045143;28;20036;-57
2023/11/03 00:47:37;;;;;;;12.80;8.48;;;;;;;;;;5044795;28;20061;-59
2023/11/03 00:50:03;;;;;;;11.50;8.50;;;;;;;;;;5044976;28;20025;-59
2023/11/03 00:52:28;;;;;;;10.95;7.88;;;;;;;;;;5044647;28;20107;-58
2023/11/03 00:54:53;;;;;;;12.43;8.82;;;;;;;;;;5045356;28;20056;-58
2023/11/03 00:57:19;;;;;;;12.13;9.00;;;;;;;;;;5043262;28;20064;-58
2023/11/03 00:59:44;;;;;;;13.75;9.20;;;;;;;;;;5026639;28;20636;-59
2023/11/03 01:02:11;;;;;;;12.68;8.63;;;;;;;;;;5044517;28;20067;-57
2023/11/03 01:04:37;;;;;;;12.43;8.27;;;;;;;;;;5044839;28;20053;-58
2023/11/03 01:07:03;;;;;;;12.27;8.35;;;;;;;;;;5044683;28;20044;-59
2023/11/03 01:09:29;;;;;;;12.85;8.45;;;;;;;;;;5044558;28;20029;-57
2023/11/03 01:11:54;;;;;;;13.75;9.38;;;;;;;;;;5044462;28;20172;-59
2023/11/03 01:14:20;;;;;;;11.23;8.80;;;;;;;;;;5042849;28;20124;-57
2023/11/03 01:16:45;;;;;;;13.55;9.18;;;;;;;;;;5044634;28;20061;-60
2023/11/03 01:19:10;;;;;;;12.70;8.77;;;;;;;;;;5044717;28;20120;-58
2023/11/03 01:21:39;;;;;;;11.93;9.07;;;;;;;;;;5043252;28;20889;-58
2023/11/03 01:24:06;;;;;;;12.13;8.80;;;;;;;;;;5028177;28;20120;-60
2023/11/03 01:26:32;;;;;;;12.77;9.07;;;;;;;;;;5044016;28;20047;-59
2023/11/03 01:28:57;;;;;;;11.75;8.57;;;;;;;;;;5043626;28;20499;-58
2023/11/03 01:31:22;;;;;;;12.43;8.68;;;;;;;;;;5041012;28;20090;-57
2023/11/03 01:33:49;;;;;;;12.27;9.40;;;;;;;;;;5025617;28;20049;-57
2023/11/03 01:36:15;;;;;;;13.50;9.13;;;;;;;;;;5044035;28;20036;-58
2023/11/03 01:38:40;;;;;;;12.77;8.82;;;;;;;;;;5024409;28;20041;-58
2023/11/03 01:41:09;;;;;;;11.55;8.93;;;;;;;;;;5042681;28;20366;-58
2023/11/03 01:43:35;;;;;;;11.60;8.50;;;;;;;;;;5041880;28;20076;-60
2023/11/03 01:46:02;;;;;;;11.98;9.25;;;;;;;;;;5041650;28;20029;-58
2023/11/03 01:48:28;;;;;;;11.93;8.82;;;;;;;;;;5040508;28;20484;-59
2023/11/03 01:50:54;;;;;;;13.50;8.95;;;;;;;;;;5024954;28;20049;-58
2023/11/03 01:53:19;;;;;;;14.18;9.15;;;;;;;;;;5042250;28;20044;-58
2023/11/03 01:55:45;;;;;;;12.38;8.90;;;;;;;;;;5042830;28;20045;-58
2023/11/03 01:58:11;;;;;;;12.02;9.02;;;;;;;;;;5042667;28;20497;-58
2023/11/03 02:00:36;;;;;;;12.50;8.85;;;;;;;;;;5042657;28;20152;-57
2023/11/03 02:03:02;;;;;;;13.00;9.35;;;;;;;;;;5045635;28;20056;-59
2023/11/03 02:05:28;;;;;;;12.38;8.70;;;;;;;;;;5044591;28;20041;-57
2023/11/03 02:07:53;;;;;;;13.10;9.25;;;;;;;;;;5028406;28;20541;-58
2023/11/03 02:10:19;;;;;;;14.55;9.52;;;;;;;;;;5046435;28;20040;-57
2023/11/03 02:12:44;;;;;;;13.35;9.55;;;;;;;;;;5046277;28;20067;-58
2023/11/03 02:15:09;;;;;;;14.30;9.80;;;;;;;;;;5047126;28;20072;-57
2023/11/03 02:17:35;;;;;;;11.82;8.40;;;;;;;;;;5027817;28;20535;-57
2023/11/03 02:20:00;;;;;;;13.43;9.07;;;;;;;;;;5026119;28;20036;-57
2023/11/03 02:22:26;;;;;;;13.95;9.02;;;;;;;;;;5046490;28;20055;-57
2023/11/03 02:24:51;;;;;;;11.68;9.27;;;;;;;;;;5037156;28;20087;-59
2023/11/03 02:27:18;;;;;;;13.57;8.77;;;;;;;;;;5046510;28;20099;-57
2023/11/03 02:29:44;;;;;;;12.25;9.20;;;;;;;;;;5045430;28;20045;-58
2023/11/03 02:32:10;;;;;;;13.45;9.65;;;;;;;;;;5046440;28;20064;-58
2023/11/03 02:34:35;;;;;;;14.07;9.32;;;;;;;;;;5045931;28;20071;-58
2023/11/03 02:37:00;;;;;;;12.05;8.85;;;;;;;;;;5043741;28;20039;-59
2023/11/03 02:39:26;;;;;;;14.48;9.05;;;;;;;;;;5044585;28;20792;-57
2023/11/03 02:41:51;;;;;;;13.70;9.45;;;;;;;;;;5046209;28;20052;-59
2023/11/03 02:44:16;;;;;;;13.50;9.57;;;;;;;;;;5045583;28;20032;-59
2023/11/03 02:46:43;;;;;;;12.75;9.15;;;;;;;;;;5046060;28;20144;-58
2023/11/03 02:49:09;;;;;;;14.30;9.27;;;;;;;;;;5045360;28;20044;-59
2023/11/03 02:51:34;;;;;;;13.18;8.75;;;;;;;;;;5045811;28;20037;-57
2023/11/03 02:53:59;;;;;;;14.77;9.73;;;;;;;;;;5036354;28;20106;-58
2023/11/03 02:56:25;;;;;;;13.98;9.98;;;;;;;;;;5045165;28;20044;-58
2023/11/03 02:58:50;;;;;;;14.38;9.73;;;;;;;;;;5045372;28;20154;-57
2023/11/03 03:01:15;;;;;;;13.77;9.15;;;;;;;;;;5028107;28;20052;-57
2023/11/03 03:03:41;;;;;;;12.25;9.25;;;;;;;;;;5044468;28;20589;-58
2023/11/03 03:06:06;;;;;;;13.95;9.70;;;;;;;;;;5045613;28;20456;-57
2023/11/03 03:08:32;;;;;;;12.90;9.40;;;;;;;;;;5045388;28;20500;-58
2023/11/03 03:10:57;;;;;;;12.70;9.48;;;;;;;;;;5044249;28;20091;-57
2023/11/03 03:13:23;;;;;;;14.88;9.82;;;;;;;;;;5044068;28;20040;-57
2023/11/03 03:15:48;;;;;;;13.75;9.30;;;;;;;;;;5045591;28;20037;-58
2023/11/03 03:18:13;;;;;;;13.75;9.27;;;;;;;;;;5028777;28;20582;-61
2023/11/03 03:20:38;;;;;;;13.63;9.37;;;;;;;;;;5046365;28;20041;-58
2023/11/03 03:23:04;;;;;;;13.07;9.70;;;;;;;;;;5029004;28;20850;-58
2023/11/03 03:25:29;;;;;;;12.68;9.63;;;;;;;;;;5043419;28;20119;-58
2023/11/03 03:27:55;;;;;;;14.45;10.30;;;;;;;;;;5045678;28;20509;-57
2023/11/03 03:30:20;;;;;;;15.38;9.55;;;;;;;;;;5045912;28;20117;-58
2023/11/03 03:32:46;;;;;;;14.55;9.40;;;;;;;;;;5045658;28;20513;-58
2023/11/03 03:35:12;;;;;;;15.23;9.70;;;;;;;;;;5045277;28;20037;-58
2023/11/03 03:37:37;;;;;;;14.65;9.38;;;;;;;;;;5044037;28;20045;-58
2023/11/03 03:40:02;;;;;;;12.95;9.20;;;;;;;;;;5047591;28;20029;-59
2023/11/03 03:42:28;;;;;;;15.23;9.73;;;;;;;;;;5045920;28;20041;-59
2023/11/03 03:44:53;;;;;;;12.70;9.60;;;;;;;;;;5044943;28;20124;-57
2023/11/03 03:47:18;;;;;;;12.95;9.75;;;;;;;;;;5044834;28;20041;-60
2023/11/03 03:49:44;;;;;;;13.85;10.10;;;;;;;;;;5044791;28;20425;-56
2023/11/03 03:52:09;;;;;;;12.68;9.38;;;;;;;;;;5044593;28;20051;-57
2023/11/03 03:54:35;;;;;;;13.80;9.48;;;;;;;;;;5044358;28;20029;-58
2023/11/03 03:57:00;;;;;;;13.65;10.07;;;;;;;;;;5010210;28;20048;-57
2023/11/03 03:59:25;;;;;;;13.37;9.90;;;;;;;;;;5041828;28;20512;-57
2023/11/03 04:01:51;;;;;;;13.35;10.02;;;;;;;;;;5020648;28;20330;-57
2023/11/03 04:04:16;;;;;;;14.52;9.82;;;;;;;;;;5043684;28;20052;-57
2023/11/03 04:06:43;;;;;;;14.47;10.27;;;;;;;;;;5010174;28;20045;-58
2023/11/03 04:09:08;;;;;;;13.95;10.00;;;;;;;;;;5027066;28;20683;-57
2023/11/03 04:11:34;;;;;;;13.48;10.13;;;;;;;;;;5043761;28;20048;-57
2023/11/03 04:13:59;;;;;;;14.70;9.53;;;;;;;;;;5043980;28;20032;-57
2023/11/03 04:16:34;;;;;;;13.55;10.05;;;;;;;;;;5044596;28;20295;-57
2023/11/03 04:18:59;;;;;;;13.70;9.93;;;;;;;;;;5044838;28;20044;-56
2023/11/03 04:21:24;;;;;;;14.77;10.23;;;;;;;;;;5041095;28;20037;-57
2023/11/03 04:23:50;;;;;;;14.35;10.25;;;;;;;;;;5043745;28;20033;-57
2023/11/03 04:26:15;;;;;;;13.02;9.50;;;;;;;;;;5043090;28;20033;-57
2023/11/03 04:28:40;;;;;;;13.43;10.00;;;;;;;;;;5044862;28;20105;-58
2023/11/03 04:31:06;;;;;;;11.63;8.90;;;;;;;;;;5043770;28;20073;-58
2023/11/03 04:33:32;;;;;;;15.18;10.18;;;;;;;;;;5043653;28;20088;-59
2023/11/03 04:35:57;;;;;;;13.98;10.10;;;;;;;;;;5041218;28;20416;-59
2023/11/03 04:38:22;;;;;;;13.93;9.90;;;;;;;;;;5043976;28;20037;-58
2023/11/03 04:40:48;;;;;;;13.90;9.50;;;;;;;;;;5043007;28;20041;-58
2023/11/03 04:43:13;;;;;;;14.48;10.23;;;;;;;;;;5043723;28;20049;-58
2023/11/03 04:45:38;;;;;;;12.13;9.25;;;;;;;;;;5027203;28;20411;-59
2023/11/03 04:48:03;;;;;;;12.03;8.93;;;;;;;;;;5043932;28;20563;-58
2023/11/03 04:50:30;;;;;;;14.05;9.93;;;;;;;;;;5043386;28;20279;-58
2023/11/03 04:52:56;;;;;;;14.35;10.13;;;;;;;;;;5023539;28;20179;-59
2023/11/03 04:55:21;;;;;;;14.98;10.18;;;;;;;;;;5024536;28;20105;-58
2023/11/03 04:57:47;;;;;;;14.25;10.00;;;;;;;;;;5025575;28;20046;-57
2023/11/03 05:00:12;;;;;;;12.55;8.90;;;;;;;;;;5041759;28;20017;-59
2023/11/03 05:02:39;;;;;;;14.70;10.00;;;;;;;;;;5033380;28;20051;-58
2023/11/03 05:05:04;;;;;;;14.07;10.05;;;;;;;;;;5037958;28;20107;-57
2023/11/03 05:07:33;;;;;;;13.60;9.50;;;;;;;;;;5012822;28;20028;-58
2023/11/03 05:09:58;;;;;;;14.85;9.60;;;;;;;;;;5026574;28;20029;-57
2023/11/03 05:12:24;;;;;;;14.88;9.73;;;;;;;;;;5028739;28;20070;-59
2023/11/03 05:14:50;;;;;;;12.10;9.32;;;;;;;;;;5029287;28;20568;-57
2023/11/03 05:17:15;;;;;;;17.02;11.00;;;;;;;;;;5030073;28;20021;-58
2023/11/03 05:19:40;;;;;;;14.57;9.77;;;;;;;;;;5017665;28;20472;-59
2023/11/03 05:22:06;;;;;;;14.32;10.32;;;;;;;;;;5028361;28;20033;-60
2023/11/03 05:24:31;;;;;;;14.85;9.65;;;;;;;;;;5026213;28;20087;-59
2023/11/03 05:26:56;;;;;;;18.80;9.25;;;;;;;;;;5027083;28;20739;-58
2023/11/03 05:29:23;;;;;;;13.30;9.07;;;;;;;;;;5027046;28;20481;-58
2023/11/03 05:31:51;;;;;;;14.27;9.38;;;;;;;;;;5004219;28;20037;-58
2023/11/03 05:34:18;;;;;;;13.55;9.18;;;;;;;;;;5022983;28;20036;-59
2023/11/03 05:36:43;;;;;;;14.57;10.05;;;;;;;;;;5002361;28;20033;-57
2023/11/03 05:39:09;;;;;;;12.48;8.82;;;;;;;;;;5026219;28;20028;-58
2023/11/03 05:41:34;;;;;;;13.90;8.75;;;;;;;;;;5024862;28;20037;-59
2023/11/03 05:44:00;;;;;;;12.23;9.20;;;;;;;;;;5025227;28;20051;-60
2023/11/03 05:46:25;;;;;;;12.07;9.02;;;;;;;;;;5027760;28;22524;-59
2023/11/03 05:48:52;;;;;;;14.52;9.60;;;;;;;;;;5031822;28;20172;-58
2023/11/03 05:51:17;;;;;;;12.98;10.00;;;;;;;;;;5032419;28;20811;-58
2023/11/03 05:53:42;;;;;;;15.32;10.15;;;;;;;;;;5031041;28;20080;-59
2023/11/03 05:56:07;;;;;;;15.07;9.68;;;;;;;;;;5030910;28;20041;-58
2023/11/03 05:58:33;;;;;;;14.07;9.25;;;;;;;;;;5023625;28;20037;-58
2023/11/03 06:00:58;;;;;;;12.65;9.40;;;;;;;;;;5025792;28;20041;-58
2023/11/03 06:03:23;;;;;;;13.88;9.55;;;;;;;;;;5023533;28;20137;-58
2023/11/03 06:05:49;;;;;;;14.07;9.93;;;;;;;;;;5027667;28;20432;-57
2023/11/03 06:08:14;;;;;;;13.90;9.68;;;;;;;;;;5029811;28;20118;-58
2023/11/03 06:10:39;;;;;;;14.55;10.15;;;;;;;;;;5027960;28;20499;-62
2023/11/03 06:13:05;;;;;;;13.90;10.38;;;;;;;;;;5033769;28;20095;-59
2023/11/03 06:15:30;;;;;;;14.18;9.82;;;;;;;;;;5030035;28;20041;-58
2023/11/03 06:17:55;;;;;;;14.30;9.77;;;;;;;;;;5030924;28;20106;-58
2023/11/03 06:20:21;;;;;;;14.30;10.07;;;;;;;;;;5026836;28;20533;-58
2023/11/03 06:22:46;;;;;;;15.27;10.07;;;;;;;;;;5027616;28;20052;-58
2023/11/03 06:25:11;;;;;;;14.68;10.13;;;;;;;;;;5029392;28;20029;-60
2023/11/03 06:27:37;;;;;;;15.10;10.00;;;;;;;;;;5030629;28;20059;-61
2023/11/03 06:30:02;;;;;;;13.48;9.70;;;;;;;;;;5023024;28;20405;-59
2023/11/03 06:32:28;;;;;;;12.73;9.75;;;;;;;;;;5021086;28;20544;-61
2023/11/03 06:34:53;;;;;;;14.60;9.25;;;;;;;;;;5021619;28;20049;-60
2023/11/03 06:37:18;;;;;;;16.25;10.20;;;;;;;;;;5004301;28;20029;-59
2023/11/03 06:39:44;;;;;;;14.23;10.10;;;;;;;;;;5019592;28;20049;-57
2023/11/03 06:42:09;;;;;;;16.13;9.48;;;;;;;;;;5008033;28;20060;-59
2023/11/03 06:44:36;;;;;;;14.82;10.30;;;;;;;;;;5021310;28;20050;-59
2023/11/03 06:47:01;;;;;;;13.75;9.43;;;;;;;;;;5008041;28;20095;-58
2023/11/03 06:49:28;;;;;;;13.82;9.82;;;;;;;;;;5026424;28;20091;-58
2023/11/03 06:51:53;;;;;;;16.95;9.70;;;;;;;;;;5023934;28;20033;-57
2023/11/03 06:54:19;;;;;;;15.30;9.57;;;;;;;;;;5022651;28;20056;-58
2023/11/03 06:56:44;;;;;;;16.75;10.10;;;;;;;;;;5022280;28;20476;-58
2023/11/03 06:59:10;;;;;;;13.50;9.20;;;;;;;;;;5012155;28;20098;-59
2023/11/03 07:01:35;;;;;;;13.00;9.68;;;;;;;;;;5024364;28;20174;-59
2023/11/03 07:04:01;;;;;;;13.30;9.98;;;;;;;;;;5024134;28;20038;-59
2023/11/03 07:06:27;;;;;;;15.13;9.55;;;;;;;;;;5024238;28;20044;-58
2023/11/03 07:08:52;;;;;;;12.93;9.68;;;;;;;;;;5025301;28;20120;-58
2023/11/03 07:11:17;;;;;;;14.27;10.30;;;;;;;;;;5024343;28;20517;-59
2023/11/03 07:13:45;;;;;;;16.05;10.30;;;;;;;;;;5024056;28;20036;-60
2023/11/03 07:16:13;;;;;;;14.93;10.05;;;;;;;;;;5023621;28;20143;-59
2023/11/03 07:18:38;;;;;;;16.10;9.90;;;;;;;;;;5022761;28;20048;-59
2023/11/03 07:21:12;;;;;;;13.15;9.48;;;;;;;;;;5024667;28;20033;-60
2023/11/03 07:23:38;;;;;;;14.75;9.70;;;;;;;;;;5009547;28;20606;-60
2023/11/03 07:26:03;;;;;;;13.88;9.70;;;;;;;;;;5023652;28;20138;-60
2023/11/03 07:28:29;;;;;;;14.38;10.35;;;;;;;;;;5010896;28;20438;-59
2023/11/03 07:30:55;;;;;;;16.08;10.32;;;;;;;;;;5023939;28;20229;-57
2023/11/03 07:33:20;;;;;;;13.35;9.80;;;;;;;;;;5013223;28;20505;-59
2023/11/03 07:35:46;;;;;;;15.38;9.95;;;;;;;;;;5009205;28;20494;-63
2023/11/03 07:38:12;;;;;;;13.80;9.38;;;;;;;;;;5020255;28;20046;-59
2023/11/03 07:40:37;;;;;;;16.08;9.75;;;;;;;;;;5027723;28;20033;-59
2023/11/03 07:43:02;;;;;;;14.20;10.05;;;;;;;;;;5020973;28;20086;-58
2023/11/03 07:45:28;;;;;;;15.77;9.98;;;;;;;;;;5025310;28;20086;-59
2023/11/03 07:47:53;;;;;;;16.27;9.52;;;;;;;;;;5029461;28;20507;-59
2023/11/03 07:50:18;;;;;;;15.13;10.00;;;;;;;;;;5027892;28;20028;-58
2023/11/03 07:52:44;;;;;;;15.15;9.10;;;;;;;;;;5027640;28;20544;-59
2023/11/03 07:55:15;;;;;;;15.60;9.75;;;;;;;;;;5027106;28;20608;-60
2023/11/03 07:57:41;;;;;;;19.65;10.30;;;;;;;;;;5025970;28;20052;-59
2023/11/03 08:00:09;;;;;;;14.93;9.73;;;;;;;;;;5028271;28;20043;-58
2023/11/03 08:02:34;;;;;;;14.60;10.15;;;;;;;;;;5028820;28;20056;-57
2023/11/03 08:05:00;;;;;;;16.15;10.75;;;;;;;;;;5023549;28;20041;-62
2023/11/03 08:07:25;;;;;;;16.00;10.43;;;;;;;;;;5025482;28;20508;-64
2023/11/03 08:09:50;;;;;;;17.75;11.05;;;;;;;;;;5028740;28;20037;-59
2023/11/03 08:12:16;;;;;;;17.95;12.98;;;;;;;;;;5024654;28;20099;-57
2023/11/03 08:14:41;;;;;;;18.30;11.95;;;;;;;;;;5026095;28;20065;-58
2023/11/03 08:17:06;;;;;;;15.13;10.60;;;;;;;;;;5012024;28;20025;-55
2023/11/03 08:19:31;;;;;;;16.45;11.07;;;;;;;;;;5028406;28;20496;-57
2023/11/03 08:21:57;;;;;;;18.25;11.80;;;;;;;;;;5012996;28;20136;-56
2023/11/03 08:24:22;;;;;;;17.98;11.00;;;;;;;;;;5026200;28;20575;-57
2023/11/03 08:26:48;;;;;;;16.77;11.55;;;;;;;;;;5027152;28;20056;-59
2023/11/03 08:29:14;;;;;;;17.30;10.50;;;;;;;;;;5027118;28;20037;-58
2023/11/03 08:31:39;;;;;;;14.88;11.15;;;;;;;;;;5025398;28;20855;-57
2023/11/03 08:34:04;;;;;;;15.85;10.52;;;;;;;;;;5025562;28;20033;-56
2023/11/03 08:36:30;;;;;;;16.58;11.00;;;;;;;;;;5026758;28;20040;-57
2023/11/03 08:38:55;;;;;;;17.00;10.57;;;;;;;;;;5024642;28;20395;-58
2023/11/03 08:41:21;;;;;;;17.83;11.40;;;;;;;;;;5027118;28;21547;-58
2023/11/03 08:43:46;;;;;;;20.05;10.77;;;;;;;;;;5025107;28;20055;-57
2023/11/03 08:46:13;;;;;;;18.73;10.85;;;;;;;;;;5028199;28;20120;-57
2023/11/03 08:48:41;;;;;;;16.55;10.85;;;;;;;;;;5012404;28;20394;-57
2023/11/03 08:51:07;;;;;;;17.35;11.55;;;;;;;;;;5025270;28;20041;-57
2023/11/03 08:53:32;;;;;;;16.58;11.30;;;;;;;;;;5025262;28;20508;-56
2023/11/03 08:55:58;;;;;;;16.88;11.00;;;;;;;;;;5027177;28;20029;-56
2023/11/03 08:58:24;;;;;;;18.17;11.35;;;;;;;;;;5028699;28;20061;-57
2023/11/03 09:00:54;;;;;;;18.58;11.60;;;;;;;;;;5030860;28;20060;-58
2023/11/03 09:03:20;;;;;;;17.45;11.60;;;;;;;;;;5029432;28;20049;-59
2023/11/03 09:05:45;;;;;;;16.88;11.40;;;;;;;;;;5025696;28;20052;-58
2023/11/03 09:08:10;;;;;;;16.77;11.43;;;;;;;;;;5029318;28;20033;-57
2023/11/03 09:10:36;;;;;;;15.98;10.80;;;;;;;;;;5029734;28;20561;-58
2023/11/03 09:13:01;;;;;;;19.42;11.77;;;;;;;;;;5025970;28;20032;-55
2023/11/03 09:15:26;;;;;;;17.83;11.57;;;;;;;;;;5024630;28;20402;-55
2023/11/03 09:17:51;;;;;;;17.88;11.55;;;;;;;;;;5024936;28;20036;-55
2023/11/03 09:20:17;;;;;;;15.13;10.97;;;;;;;;;;5025696;28;20044;-55
2023/11/03 09:22:43;;;;;;;16.55;11.40;;;;;;;;;;5011105;28;20302;-54
2023/11/03 09:25:08;;;;;;;18.73;11.25;;;;;;;;;;5008903;28;20494;-55
2023/11/03 09:27:34;;;;;;;18.77;11.52;;;;;;;;;;5023550;28;20061;-54
2023/11/03 09:29:59;;;;;;;15.45;10.90;;;;;;;;;;5025569;28;20049;-54
2023/11/03 09:32:27;;;;;;;15.82;10.73;;;;;;;;;;5024941;28;20065;-55
2023/11/03 09:34:52;;;;;;;18.52;11.38;;;;;;;;;;5023826;28;20124;-54
2023/11/03 09:37:17;;;;;;;14.98;10.68;;;;;;;;;;5026201;28;20125;-57
2023/11/03 09:39:43;;;;;;;16.30;11.40;;;;;;;;;;5025376;28;21762;-56
2023/11/03 09:42:10;;;;;;;17.75;11.00;;;;;;;;;;5025368;28;20124;-57
2023/11/03 09:44:37;;;;;;;17.55;11.52;;;;;;;;;;5026086;28;20152;-57
2023/11/03 09:47:06;;;;;;;16.35;10.30;;;;;;;;;;5026849;28;20091;-55
2023/11/03 09:49:31;;;;;;;16.90;10.68;;;;;;;;;;5023392;28;20033;-56
2023/11/03 09:52:03;;;;;;;16.25;11.32;;;;;;;;;;5025627;28;20025;-56
2023/11/03 09:54:35;;;;;;;15.57;11.02;;;;;;;;;;5026241;28;20509;-57
2023/11/03 09:57:03;;;;;;;16.48;10.93;;;;;;;;;;5013532;28;20041;-56
2023/11/03 09:59:34;;;;;;;16.52;11.02;;;;;;;;;;5016725;28;20026;-56
2023/11/03 10:02:00;;;;;;;16.20;11.57;;;;;;;;;;5024962;28;20056;-56
2023/11/03 10:04:26;;;;;;;19.67;12.18;;;;;;;;;;5026074;28;20041;-57
2023/11/03 10:06:52;;;;;;;17.50;11.35;;;;;;;;;;5004078;28;20033;-55
2023/11/03 10:09:17;;;;;;;15.60;10.85;;;;;;;;;;5021504;28;20040;-55
2023/11/03 10:11:44;;;;;;;16.85;11.07;;;;;;;;;;5009222;28;20041;-55
2023/11/03 10:14:09;;;;;;;15.63;9.88;;;;;;;;;;5006693;28;20029;-57
2023/11/03 10:16:35;;;;;;;15.07;10.27;;;;;;;;;;5021389;28;21246;-56
2023/11/03 10:19:02;;;;;;;13.90;9.70;;;;;;;;;;5021958;28;20575;-55
2023/11/03 10:21:28;;;;;;;17.15;10.15;;;;;;;;;;5021972;28;20025;-54
2023/11/03 10:23:54;;;;;;;15.00;9.20;;;;;;;;;;5013598;28;20399;-55
2023/11/03 10:26:20;;;;;;;14.60;9.55;;;;;;;;;;5030630;28;20041;-55
2023/11/03 10:28:46;;;;;;;14.00;9.65;;;;;;;;;;5029475;28;20091;-56
2023/11/03 10:31:11;;;;;;;14.52;9.77;;;;;;;;;;5014579;28;20037;-55
2023/11/03 10:33:37;;;;;;;13.30;9.57;;;;;;;;;;5033138;28;20090;-56
2023/11/03 10:36:02;;;;;;;14.98;9.50;;;;;;;;;;5034751;28;20030;-56
2023/11/03 10:38:28;;;;;;;10.85;8.27;;;;;;;;;;5032410;28;20418;-54
2023/11/03 10:40:54;;;;;;;13.43;9.05;;;;;;;;;;5031394;28;20044;-57
2023/11/03 10:43:22;;;;;;;13.45;8.40;;;;;;;;;;5028716;28;20722;-54
2023/11/03 10:45:50;;;;;;;12.98;8.38;;;;;;;;;;5031150;28;20139;-55
2023/11/03 10:48:18;;;;;;;13.63;8.65;;;;;;;;;;5034768;28;20107;-56
2023/11/03 10:50:51;;;;;;;13.73;8.55;;;;;;;;;;5018628;28;20013;-55
2023/11/03 10:53:22;;;;;;;12.05;8.20;;;;;;;;;;5029345;28;20557;-54
2023/11/03 10:55:51;;;;;;;12.52;8.50;;;;;;;;;;5030452;28;20079;-55
2023/11/03 10:58:17;;;;;;;13.52;8.35;;;;;;;;;;5031167;28;20418;-55
2023/11/03 11:01:02;;;;;;;15.02;8.90;;;;;;;;;;5030830;28;20049;-56
2023/11/03 11:03:31;;;;;;;12.57;8.30;;;;;;;;;;5030010;28;20051;-56
2023/11/03 11:06:05;;;;;;;11.70;8.40;;;;;;;;;;5012547;28;20049;-57
2023/11/03 11:08:32;;;;;;;12.25;8.45;;;;;;;;;;5028901;28;20498;-58
2023/11/03 11:10:57;;;;;;;12.57;8.20;;;;;;;;;;5016177;28;20505;-56
2023/11/03 11:13:24;;;;;;;12.43;8.50;;;;;;;;;;5028458;28;20099;-56
2023/11/03 11:15:55;;;;;;;13.18;8.30;;;;;;;;;;5025403;28;20061;-56
2023/11/03 11:18:21;;;;;;;11.68;8.30;;;;;;;;;;5035170;28;20044;-57
2023/11/03 11:20:51;;;;;;;13.00;8.10;;;;;;;;;;5031752;28;20428;-56
2023/11/03 11:23:16;;;;;;;11.60;8.07;;;;;;;;;;5040542;28;20076;-56
2023/11/03 11:25:41;;;;;;;13.50;8.52;;;;;;;;;;5040373;28;20084;-55
2023/11/03 11:28:16;;;;;;;13.13;8.07;;;;;;;;;;5021756;28;20044;-56
2023/11/03 11:30:41;;;;;;;13.63;8.35;;;;;;;;;;5019574;28;20120;-55
2023/11/03 11:33:07;;;;;;;13.27;9.07;;;;;;;;;;5044534;28;20113;-56
2023/11/03 11:35:37;;;;;;;11.95;7.90;;;;;;;;;;5038876;28;20047;-56
2023/11/03 11:38:02;;;;;;;11.95;7.88;;;;;;;;;;5032805;28;20038;-55
2023/11/03 11:40:27;;;;;;;11.27;7.72;;;;;;;;;;5019896;28;20498;-55
2023/11/03 11:42:52;;;;;;;12.23;8.10;;;;;;;;;;5037709;28;20099;-57
2023/11/03 11:45:18;;;;;;;13.98;7.40;;;;;;;;;;5025807;28;20604;-55
2023/11/03 11:47:44;;;;;;;10.93;7.97;;;;;;;;;;5043183;28;20033;-55
2023/11/03 11:50:11;;;;;;;11.95;7.55;;;;;;;;;;5031087;28;20116;-54
2023/11/03 11:52:36;;;;;;;10.93;7.53;;;;;;;;;;5042740;28;20041;-55
2023/11/03 11:55:02;;;;;;;11.60;7.78;;;;;;;;;;5043975;28;20037;-55
2023/11/03 11:57:27;;;;;;;10.88;7.57;;;;;;;;;;5043383;28;20119;-54
2023/11/03 11:59:53;;;;;;;11.00;7.45;;;;;;;;;;5029313;28;20127;-55
2023/11/03 12:02:19;;;;;;;11.45;7.10;;;;;;;;;;5043626;28;20044;-56
2023/11/03 12:04:47;;;;;;;9.90;6.93;;;;;;;;;;5043380;28;20073;-55
2023/11/03 12:07:12;;;;;;;10.50;6.93;;;;;;;;;;5039403;28;20036;-55
2023/11/03 12:09:37;;;;;;;11.05;6.95;;;;;;;;;;5015124;28;20615;-57
2023/11/03 12:12:03;;;;;;;9.90;6.57;;;;;;;;;;5011288;28;20033;-56
2023/11/03 12:14:28;;;;;;;10.32;6.90;;;;;;;;;;5030062;28;20539;-57
2023/11/03 12:16:53;;;;;;;11.70;7.20;;;;;;;;;;5018644;28;20037;-56
2023/11/03 12:19:19;;;;;;;9.52;6.78;;;;;;;;;;5017594;28;20032;-57
2023/11/03 12:21:48;;;;;;;11.00;7.22;;;;;;;;;;5032550;28;20399;-54
2023/11/03 12:24:14;;;;;;;9.93;7.03;;;;;;;;;;5043049;28;20036;-56
2023/11/03 12:26:40;;;;;;;9.98;6.93;;;;;;;;;;5043639;28;20041;-56
2023/11/03 12:29:23;;;;;;;10.18;6.57;;;;;;;;;;5034929;28;20048;-55
2023/11/03 12:31:49;;;;;;;9.75;6.68;;;;;;;;;;5031133;28;20036;-55
2023/11/03 12:34:15;;;;;;;11.10;7.07;;;;;;;;;;5031500;28;20059;-56
2023/11/03 12:36:41;;;;;;;10.35;6.93;;;;;;;;;;5035359;28;20075;-56
2023/11/03 12:39:06;;;;;;;10.45;6.60;;;;;;;;;;5024949;28;20056;-55
2023/11/03 12:41:31;;;;;;;9.45;6.55;;;;;;;;;;5025197;28;20061;-56
2023/11/03 12:43:57;;;;;;;9.57;6.80;;;;;;;;;;5024762;28;20041;-56
2023/11/03 12:46:22;;;;;;;11.20;6.40;;;;;;;;;;5025922;28;20718;-56
2023/11/03 12:48:48;;;;;;;12.27;6.95;;;;;;;;;;5029904;28;20287;-56
2023/11/03 12:51:13;;;;;;;11.75;7.30;;;;;;;;;;5028511;28;20024;-57
2023/11/03 12:53:45;;;;;;;10.90;7.43;;;;;;;;;;5032128;28;20405;-55
2023/11/03 12:56:11;;;;;;;10.75;7.40;;;;;;;;;;5027250;28;20037;-56
2023/11/03 12:58:36;;;;;;;10.68;7.25;;;;;;;;;;5025466;28;20048;-55
2023/11/03 13:01:04;;;;;;;11.10;7.07;;;;;;;;;;5032110;28;20036;-54
2023/11/03 13:03:29;;;;;;;11.65;8.07;;;;;;;;;;5029648;28;20077;-56
2023/11/03 13:05:55;;;;;;;11.15;7.20;;;;;;;;;;5024375;28;20064;-56
2023/11/03 13:08:20;;;;;;;10.93;7.40;;;;;;;;;;5026455;28;20150;-55
2023/11/03 13:10:45;;;;;;;12.80;7.47;;;;;;;;;;5022650;28;20041;-57
2023/11/03 13:13:11;;;;;;;13.85;8.00;;;;;;;;;;5034781;28;20083;-55
2023/11/03 13:15:36;;;;;;;11.52;7.72;;;;;;;;;;5027924;28;20040;-56
2023/11/03 13:18:02;;;;;;;12.60;8.27;;;;;;;;;;5018818;28;20040;-56
2023/11/03 13:20:27;;;;;;;11.80;8.20;;;;;;;;;;5034019;28;20481;-55
2023/11/03 13:22:58;;;;;;;12.73;8.13;;;;;;;;;;5036916;28;20504;-55
2023/11/03 13:25:23;;;;;;;10.25;6.88;;;;;;;;;;5031850;28;20032;-55
2023/11/03 13:27:49;;;;;;;10.85;7.13;;;;;;;;;;5030408;28;20016;-56
2023/11/03 13:30:15;;;;;;;12.88;7.30;;;;;;;;;;5026972;28;20017;-55
2023/11/03 13:32:41;;;;;;;12.15;7.13;;;;;;;;;;5031318;28;20401;-55
2023/11/03 13:35:08;;;;;;;11.02;7.03;;;;;;;;;;5025976;28;20032;-56
2023/11/03 13:37:33;;;;;;;10.45;7.10;;;;;;;;;;5029640;28;20497;-54
2023/11/03 13:39:59;;;;;;;11.27;6.82;;;;;;;;;;5028081;28;20070;-57
2023/11/03 13:42:24;;;;;;;10.40;6.63;;;;;;;;;;5029907;28;20044;-57
2023/11/03 13:44:50;;;;;;;11.93;6.90;;;;;;;;;;5008378;28;20080;-55
2023/11/03 13:47:18;;;;;;;9.02;6.53;;;;;;;;;;5026336;28;20446;-55
2023/11/03 13:49:48;;;;;;;10.82;6.78;;;;;;;;;;5029996;28;20781;-55
2023/11/03 13:52:13;;;;;;;11.75;6.82;;;;;;;;;;5027125;28;20051;-56
2023/11/03 13:54:38;;;;;;;10.38;6.78;;;;;;;;;;5014995;28;20418;-55
2023/11/03 13:57:06;;;;;;;9.02;6.28;;;;;;;;;;5030038;28;20048;-54
2023/11/03 13:59:32;;;;;;;10.75;6.70;;;;;;;;;;5027238;28;20110;-55
2023/11/03 14:01:57;;;;;;;10.18;7.03;;;;;;;;;;5033433;28;20099;-55
2023/11/03 14:04:22;;;;;;;9.77;6.82;;;;;;;;;;5005759;28;20433;-55
2023/11/03 14:06:47;;;;;;;11.52;7.65;;;;;;;;;;5034433;28;20117;-55
2023/11/03 14:09:15;;;;;;;9.65;6.57;;;;;;;;;;5035229;28;20796;-56
2023/11/03 14:11:42;;;;;;;9.85;6.40;;;;;;;;;;5015667;28;21768;-56
2023/11/03 14:14:07;;;;;;;10.38;6.88;;;;;;;;;;5032031;28;20041;-55
2023/11/03 14:16:33;;;;;;;10.70;7.13;;;;;;;;;;5028312;28;20052;-55
2023/11/03 14:18:58;;;;;;;9.90;6.80;;;;;;;;;;5036300;28;20107;-55